createdAt,value
2023-03-06T00:00:59.094Z,5.60
2023-03-06T00:04:01.155Z,5.40
2023-03-06T00:07:03.195Z,4.70
2023-03-06T00:10:05.433Z,6.40
2023-03-06T00:13:09.114Z,5.88
2023-03-06T00:16:11.655Z,5.90
2023-03-06T00:19:13.679Z,6.88
2023-03-06T00:22:16.243Z,6.45
2023-03-06T00:25:20.159Z,4.97
2023-03-06T00:28:22.239Z,4.77
2023-03-06T00:31:24.271Z,6.22
2023-03-06T00:34:26.465Z,7.05
2023-03-06T00:37:28.426Z,5.73
2023-03-06T00:40:31.039Z,5.25
2023-03-06T00:43:33.034Z,5.68
2023-03-06T00:46:35.339Z,5.93
2023-03-06T00:49:37.537Z,6.30
2023-03-06T00:52:40.534Z,6.13
2023-03-06T00:55:46.462Z,7.13
2023-03-06T00:58:48.449Z,5.93
2023-03-06T01:01:50.459Z,5.70
2023-03-06T01:04:52.577Z,6.60
2023-03-06T01:07:54.666Z,6.83
2023-03-06T01:10:56.782Z,5.45
2023-03-06T01:13:58.809Z,5.55
2023-03-06T01:17:00.942Z,6.53
2023-03-06T01:20:03.526Z,6.38
2023-03-06T01:23:05.547Z,6.18
2023-03-06T01:26:07.665Z,6.40
2023-03-06T01:29:09.833Z,5.00
2023-03-06T01:32:11.848Z,5.82
2023-03-06T01:35:14.147Z,6.20
2023-03-06T01:38:16.245Z,5.53
2023-03-06T01:41:18.478Z,5.93
2023-03-06T01:44:20.555Z,6.72
2023-03-06T01:47:22.619Z,6.18
2023-03-06T01:50:24.830Z,5.97
2023-03-06T01:53:26.843Z,7.30
2023-03-06T01:56:28.920Z,5.53
2023-03-06T01:59:32.690Z,6.53
2023-03-06T02:02:34.721Z,7.15
2023-03-06T02:05:37.212Z,6.20
2023-03-06T02:08:39.647Z,5.37
2023-03-06T02:11:46.291Z,5.63
2023-03-06T02:14:49.203Z,5.88
2023-03-06T02:17:51.722Z,6.35
2023-03-06T02:20:55.635Z,7.20
2023-03-06T02:23:57.663Z,5.93
2023-03-06T02:27:01.107Z,5.78
2023-03-06T02:30:10.156Z,6.50
2023-03-06T02:33:13.389Z,5.63
2023-03-06T02:36:16.243Z,4.90
2023-03-06T02:39:19.613Z,5.57
2023-03-06T02:42:23.590Z,4.88
2023-03-06T02:45:33.805Z,6.22
2023-03-06T02:48:35.844Z,6.53
2023-03-06T02:51:37.833Z,5.60
2023-03-06T02:54:41.022Z,6.70
2023-03-06T02:57:43.113Z,6.57
2023-03-06T03:00:45.331Z,5.97
2023-03-06T03:03:47.376Z,6.60
2023-03-06T03:06:50.251Z,5.97
2023-03-06T03:09:52.779Z,6.60
2023-03-06T03:12:54.815Z,5.85
2023-03-06T03:15:59.780Z,6.50
2023-03-06T03:19:01.874Z,7.20
2023-03-06T03:22:04.088Z,7.75
2023-03-06T03:25:06.790Z,6.30
2023-03-06T03:28:08.827Z,6.88
2023-03-06T03:31:11.342Z,6.33
2023-03-06T03:34:13.578Z,5.40
2023-03-06T03:37:17.454Z,7.70
2023-03-06T03:40:19.595Z,6.63
2023-03-06T03:43:24.761Z,6.70
2023-03-06T03:46:27.242Z,6.13
2023-03-06T03:49:31.611Z,7.65
2023-03-06T03:52:34.931Z,7.85
2023-03-06T03:55:37.179Z,7.75
2023-03-06T03:58:39.607Z,5.72
2023-03-06T04:01:41.758Z,7.27
2023-03-06T04:04:43.881Z,6.20
2023-03-06T04:07:46.366Z,5.93
2023-03-06T04:10:49.541Z,7.57
2023-03-06T04:13:52.016Z,7.30
2023-03-06T04:16:54.160Z,8.50
2023-03-06T04:19:56.364Z,9.00
2023-03-06T04:22:58.626Z,7.47
2023-03-06T04:26:00.833Z,10.43
2023-03-06T04:29:03.430Z,11.52
2023-03-06T04:32:06.871Z,10.63
2023-03-06T04:35:09.193Z,12.35
2023-03-06T04:38:19.665Z,10.65
2023-03-06T04:41:22.078Z,9.47
2023-03-06T04:44:24.271Z,9.23
2023-03-06T04:47:26.331Z,10.02
2023-03-06T04:50:32.389Z,9.98
2023-03-06T04:53:34.456Z,9.57
2023-03-06T04:56:36.547Z,9.18
2023-03-06T04:59:39.287Z,10.32
2023-03-06T05:02:42.542Z,8.73
2023-03-06T05:05:44.588Z,8.15
2023-03-06T05:08:47.300Z,8.73
2023-03-06T05:11:49.413Z,8.43
2023-03-06T05:14:51.436Z,8.23
2023-03-06T05:17:53.426Z,9.13
2023-03-06T05:20:59.536Z,8.20
2023-03-06T05:24:01.589Z,8.80
2023-03-06T05:27:04.174Z,11.43
2023-03-06T05:30:07.093Z,10.05
2023-03-06T05:33:09.152Z,10.23
2023-03-06T05:36:11.606Z,10.18
2023-03-06T05:39:13.652Z,10.38
2023-03-06T05:42:15.667Z,11.03
2023-03-06T05:45:17.784Z,9.35
2023-03-06T05:48:19.888Z,10.18
2023-03-06T05:51:21.872Z,11.23
2023-03-06T05:54:24.553Z,11.80
2023-03-06T05:57:26.632Z,12.63
2023-03-06T06:00:28.677Z,10.45
2023-03-06T06:03:30.718Z,11.17
2023-03-06T06:06:32.733Z,12.15
2023-03-06T06:09:34.761Z,11.57
2023-03-06T06:12:36.771Z,10.10
2023-03-06T06:15:38.877Z,9.20
2023-03-06T06:18:41.542Z,10.20
2023-03-06T06:21:43.651Z,9.32
2023-03-06T06:24:45.687Z,9.70
2023-03-06T06:27:47.774Z,10.05
2023-03-06T06:30:49.895Z,9.88
2023-03-06T06:33:51.930Z,8.40
2023-03-06T06:36:54.659Z,10.23
2023-03-06T06:39:56.882Z,10.18
2023-03-06T06:42:58.913Z,11.00
2023-03-06T06:46:24.268Z,10.52
2023-03-06T06:49:23.059Z,11.40
2023-03-06T06:52:25.868Z,15.32
2023-03-06T06:55:28.065Z,14.40
2023-03-06T06:58:30.282Z,17.85
2023-03-06T07:01:32.736Z,14.65
2023-03-06T07:04:34.988Z,11.07
2023-03-06T07:07:38.325Z,10.30
2023-03-06T07:10:40.512Z,11.25
2023-03-06T07:13:42.694Z,10.87
2023-03-06T07:16:44.825Z,11.98
2023-03-06T07:19:47.014Z,12.55
2023-03-06T07:22:51.763Z,12.82
2023-03-06T07:25:54.700Z,13.77
2023-03-06T07:28:56.757Z,12.73
2023-03-06T07:31:59.361Z,12.18
2023-03-06T07:35:19.084Z,12.27
2023-03-06T07:38:22.214Z,15.05
2023-03-06T07:41:24.561Z,14.18
2023-03-06T07:44:26.963Z,14.13
2023-03-06T07:47:29.055Z,12.32
2023-03-06T07:50:32.698Z,12.23
2023-03-06T07:53:35.651Z,13.15
2023-03-06T07:56:40.524Z,9.85
2023-03-06T07:59:43.043Z,9.45
2023-03-06T08:02:45.453Z,8.70
2023-03-06T08:05:47.686Z,9.27
2023-03-06T08:08:54.258Z,10.18
2023-03-06T08:11:58.395Z,7.75
2023-03-06T08:15:01.811Z,9.33
2023-03-06T08:18:04.016Z,7.57
2023-03-06T08:21:07.430Z,7.95
2023-03-06T08:24:09.606Z,8.55
2023-03-06T08:27:11.749Z,8.23
2023-03-06T08:30:14.229Z,7.60
2023-03-06T08:33:16.251Z,8.70
2023-03-06T08:36:18.319Z,8.18
2023-03-06T08:39:21.206Z,8.93
2023-03-06T08:42:23.525Z,7.82
2023-03-06T08:45:28.043Z,9.40
2023-03-06T08:48:32.206Z,8.45
2023-03-06T08:51:35.015Z,7.37
2023-03-06T08:54:37.167Z,8.57
2023-03-06T08:57:39.373Z,7.43
2023-03-06T09:00:41.672Z,8.00
2023-03-06T09:03:49.130Z,7.05
2023-03-06T09:06:55.211Z,6.50
2023-03-06T09:10:00.818Z,7.45
2023-03-06T09:13:03.008Z,8.80
2023-03-06T09:16:05.329Z,7.10
2023-03-06T09:19:08.510Z,7.63
2023-03-06T09:22:11.158Z,6.85
2023-03-06T09:25:14.064Z,6.80
2023-03-06T09:28:16.112Z,8.80
2023-03-06T09:31:19.112Z,7.45
2023-03-06T09:34:21.212Z,8.07
2023-03-06T09:37:23.655Z,7.55
2023-03-06T09:40:33.764Z,7.75
2023-03-06T09:43:38.343Z,6.85
2023-03-06T09:46:52.108Z,7.07
2023-03-06T09:50:09.962Z,8.43
2023-03-06T09:53:18.079Z,7.63
2023-03-06T09:56:22.174Z,7.18
2023-03-06T09:59:25.335Z,7.77
2023-03-06T10:02:37.876Z,7.80
2023-03-06T10:05:42.192Z,6.93
2023-03-06T10:08:44.188Z,8.15
2023-03-06T10:11:49.542Z,7.33
2023-03-06T10:14:58.012Z,9.38
2023-03-06T10:18:02.904Z,7.00
2023-03-06T10:21:19.360Z,8.30
2023-03-06T10:24:43.783Z,7.07
2023-03-06T10:27:51.182Z,7.70
2023-03-06T10:30:59.385Z,9.55
2023-03-06T10:34:17.159Z,9.13
2023-03-06T10:37:20.996Z,7.80
2023-03-06T10:40:27.306Z,8.10
2023-03-06T10:43:30.013Z,8.00
2023-03-06T10:46:46.123Z,7.57
2023-03-06T10:49:57.006Z,7.25
2023-03-06T10:53:00.570Z,8.70
2023-03-06T10:56:04.296Z,7.63
2023-03-06T10:59:06.518Z,8.37
2023-03-06T11:02:25.538Z,9.20
2023-03-06T11:05:27.613Z,7.53
2023-03-06T11:08:29.889Z,7.45
2023-03-06T11:11:37.686Z,10.10
2023-03-06T11:14:40.130Z,8.82
2023-03-06T11:18:01.954Z,8.63
2023-03-06T11:21:07.632Z,8.35
2023-03-06T11:24:18.825Z,8.57
2023-03-06T11:27:27.136Z,7.45
2023-03-06T11:30:49.666Z,8.45
2023-03-06T11:33:54.981Z,4.88
2023-03-06T11:37:17.330Z,6.03
2023-03-06T11:40:28.627Z,7.22
2023-03-06T11:43:36.864Z,7.75
2023-03-06T11:46:41.676Z,5.25
2023-03-06T11:49:45.540Z,7.35
2023-03-06T11:52:57.361Z,6.72
2023-03-06T11:55:59.536Z,7.38
2023-03-06T11:59:01.548Z,8.70
2023-03-06T12:02:28.007Z,8.70
2023-03-06T12:05:42.533Z,7.70
2023-03-06T12:08:47.394Z,7.43
2023-03-06T12:12:01.249Z,8.77
2023-03-06T12:15:03.347Z,8.38
2023-03-06T12:18:23.539Z,5.82
2023-03-06T12:21:31.851Z,7.17
2023-03-06T12:24:33.922Z,5.53
2023-03-06T12:27:54.393Z,6.40
2023-03-06T12:31:25.917Z,6.35
2023-03-06T12:34:37.336Z,5.38
2023-03-06T12:37:39.338Z,9.40
2023-03-06T12:40:56.716Z,7.30
2023-03-06T12:43:58.721Z,7.47
2023-03-06T12:47:05.289Z,8.07
2023-03-06T12:50:13.662Z,6.68
2023-03-06T12:53:19.130Z,7.40
2023-03-06T12:56:22.375Z,5.78
2023-03-06T12:59:37.222Z,7.63
2023-03-06T13:03:00.667Z,8.20
2023-03-06T13:06:12.347Z,5.53
2023-03-06T13:09:20.307Z,5.70
2023-03-06T13:12:40.685Z,6.95
2023-03-06T13:15:44.324Z,6.38
2023-03-06T13:18:49.178Z,8.30
2023-03-06T13:21:54.154Z,6.03
2023-03-06T13:25:14.916Z,6.40
2023-03-06T13:28:24.986Z,6.50
2023-03-06T13:31:28.725Z,7.47
2023-03-06T13:34:36.629Z,7.95
2023-03-06T13:37:47.479Z,7.27
2023-03-06T13:40:49.489Z,8.13
2023-03-06T13:43:52.934Z,7.50
2023-03-06T13:47:02.537Z,7.78
2023-03-06T13:50:24.373Z,8.00
2023-03-06T13:53:37.869Z,9.02
2023-03-06T13:56:52.092Z,9.18
2023-03-06T14:00:09.587Z,8.30
2023-03-06T14:03:21.019Z,7.72
2023-03-06T14:06:52.287Z,9.93
2023-03-06T14:10:00.001Z,8.63
2023-03-06T14:13:06.634Z,7.18
2023-03-06T14:16:18.248Z,9.38
2023-03-06T14:19:21.019Z,10.27
2023-03-06T14:22:23.855Z,11.00
2023-03-06T14:25:30.191Z,10.45
2023-03-06T14:28:33.267Z,11.55
2023-03-06T14:31:41.138Z,10.88
2023-03-06T14:34:46.036Z,10.95
2023-03-06T14:37:50.208Z,12.70
2023-03-06T14:40:52.497Z,13.10
2023-03-06T14:44:07.667Z,9.50
2023-03-06T14:47:45.284Z,10.25
2023-03-06T14:50:49.195Z,11.00
2023-03-06T14:53:53.028Z,12.20
2023-03-06T14:56:59.819Z,11.85
2023-03-06T15:00:02.192Z,13.23
2023-03-06T15:03:05.800Z,12.13
2023-03-06T15:06:09.724Z,10.90
2023-03-06T15:09:14.576Z,9.60
2023-03-06T15:12:22.856Z,9.95
2023-03-06T15:15:26.627Z,12.57
2023-03-06T15:18:30.997Z,12.65
2023-03-06T15:21:35.751Z,13.20
2023-03-06T15:24:38.141Z,12.43
2023-03-06T15:27:40.164Z,12.33
2023-03-06T15:30:42.187Z,15.82
2023-03-06T15:33:44.381Z,13.65
2023-03-06T15:36:48.235Z,15.77
2023-03-06T15:40:06.442Z,13.25
2023-03-06T15:43:10.469Z,14.20
2023-03-06T15:46:12.704Z,18.27
2023-03-06T15:49:16.733Z,13.03
2023-03-06T15:52:19.911Z,11.90
2023-03-06T15:55:23.826Z,13.80
2023-03-06T15:58:27.185Z,13.38
2023-03-06T16:01:29.303Z,12.03
2023-03-06T16:04:31.509Z,14.38
2023-03-06T16:07:33.786Z,10.90
2023-03-06T16:10:37.512Z,13.48
2023-03-06T16:13:39.527Z,13.13
2023-03-06T16:16:41.587Z,12.43
2023-03-06T16:19:43.707Z,13.75
2023-03-06T16:22:46.509Z,11.57
2023-03-06T16:25:49.312Z,13.60
2023-03-06T16:28:51.415Z,13.43
2023-03-06T16:31:55.157Z,13.38
2023-03-06T16:34:57.184Z,12.57
2023-03-06T16:38:00.200Z,11.70
2023-03-06T16:41:02.305Z,15.40
2023-03-06T16:44:04.491Z,15.68
2023-03-06T16:47:06.938Z,15.48
2023-03-06T16:50:25.812Z,15.85
2023-03-06T16:53:27.869Z,16.08
2023-03-06T16:56:29.941Z,18.50
2023-03-06T16:59:31.933Z,20.60
2023-03-06T17:02:34.092Z,23.35
2023-03-06T17:05:36.622Z,23.80
2023-03-06T17:08:38.664Z,22.98
2023-03-06T17:11:43.065Z,22.05
2023-03-06T17:14:45.590Z,22.73
2023-03-06T17:17:47.740Z,21.63
2023-03-06T17:20:51.491Z,20.75
2023-03-06T17:23:53.546Z,21.00
2023-03-06T17:26:55.859Z,22.43
2023-03-06T17:29:58.017Z,21.05
2023-03-06T17:33:00.823Z,21.08
2023-03-06T17:36:02.902Z,21.58
2023-03-06T17:39:06.140Z,21.20
2023-03-06T17:42:08.942Z,21.48
2023-03-06T17:45:11.717Z,22.15
2023-03-06T17:48:14.177Z,22.90
2023-03-06T17:51:16.185Z,28.45
2023-03-06T17:54:18.368Z,25.92
2023-03-06T17:57:20.399Z,29.13
2023-03-06T18:00:23.087Z,14.05
2023-03-06T18:03:25.084Z,10.38
2023-03-06T18:06:30.213Z,13.65
2023-03-06T18:09:32.290Z,9.83
2023-03-06T18:12:34.350Z,12.88
2023-03-06T18:15:40.185Z,11.95
2023-03-06T18:18:42.383Z,12.63
2023-03-06T18:21:44.636Z,12.35
2023-03-06T18:24:46.656Z,13.15
2023-03-06T18:27:48.657Z,12.07
2023-03-06T18:30:50.729Z,11.43
2023-03-06T18:33:53.413Z,13.32
2023-03-06T18:36:55.472Z,11.75
2023-03-06T18:39:57.496Z,12.73
2023-03-06T18:42:59.739Z,11.15
2023-03-06T18:46:03.005Z,10.85
2023-03-06T18:49:05.248Z,11.63
2023-03-06T18:52:07.470Z,11.13
2023-03-06T18:55:10.162Z,12.10
2023-03-06T18:58:12.143Z,12.52
2023-03-06T19:01:14.245Z,12.82
2023-03-06T19:04:16.395Z,12.38
2023-03-06T19:07:18.874Z,15.20
2023-03-06T19:10:20.859Z,14.10
2023-03-06T19:13:23.025Z,14.90
2023-03-06T19:16:26.425Z,14.38
2023-03-06T19:19:29.432Z,14.07
2023-03-06T19:22:34.344Z,15.13
2023-03-06T19:25:36.432Z,18.38
2023-03-06T19:28:39.306Z,15.93
2023-03-06T19:31:41.752Z,15.50
2023-03-06T19:34:43.776Z,16.98
2023-03-06T19:37:45.888Z,17.55
2023-03-06T19:40:51.019Z,18.43
2023-03-06T19:43:54.124Z,21.50
2023-03-06T19:46:56.223Z,20.35
2023-03-06T19:49:58.261Z,22.60
2023-03-06T19:53:00.291Z,18.33
2023-03-06T19:56:06.322Z,16.98
2023-03-06T19:59:08.421Z,18.20
2023-03-06T20:02:10.816Z,18.23
2023-03-06T20:05:12.869Z,25.73
2023-03-06T20:08:14.839Z,23.15
2023-03-06T20:11:21.577Z,22.10
2023-03-06T20:14:23.826Z,22.63
2023-03-06T20:17:26.330Z,21.60
2023-03-06T20:20:28.743Z,13.63
2023-03-06T20:23:31.488Z,12.30
2023-03-06T20:26:34.936Z,11.88
2023-03-06T20:29:37.134Z,12.10
2023-03-06T20:32:39.272Z,10.45
2023-03-06T20:35:42.532Z,11.23
2023-03-06T20:38:44.589Z,11.75
2023-03-06T20:41:46.901Z,8.70
2023-03-06T20:44:48.900Z,11.35
2023-03-06T20:47:50.896Z,8.70
2023-03-06T20:51:02.945Z,8.73
2023-03-06T20:54:06.139Z,10.13
2023-03-06T20:57:08.200Z,9.85
2023-03-06T21:00:11.103Z,12.93
2023-03-06T21:03:13.098Z,15.35
2023-03-06T21:06:15.647Z,13.82
2023-03-06T21:09:17.733Z,14.35
2023-03-06T21:12:19.908Z,13.97
2023-03-06T21:15:22.558Z,12.70
2023-03-06T21:18:24.575Z,13.07
2023-03-06T21:21:28.326Z,15.13
2023-03-06T21:24:30.305Z,14.00
2023-03-06T21:27:32.330Z,21.67
2023-03-06T21:30:34.373Z,17.55
2023-03-06T21:33:36.625Z,14.63
2023-03-06T21:36:38.641Z,20.20
2023-03-06T21:39:40.652Z,18.58
2023-03-06T21:42:42.738Z,14.27
2023-03-06T21:45:46.121Z,15.88
2023-03-06T21:48:48.226Z,14.85
2023-03-06T21:51:50.328Z,17.17
2023-03-06T21:54:52.427Z,14.85
2023-03-06T21:57:55.648Z,15.82
2023-03-06T22:00:57.653Z,16.65
2023-03-06T22:04:00.365Z,16.10
2023-03-06T22:07:02.679Z,15.48
2023-03-06T22:10:05.703Z,15.10
2023-03-06T22:13:07.758Z,13.40
2023-03-06T22:16:09.919Z,16.08
2023-03-06T22:19:11.964Z,17.15
2023-03-06T22:22:13.956Z,17.13
2023-03-06T22:25:15.943Z,14.50
2023-03-06T22:28:19.089Z,16.48
2023-03-06T22:31:25.826Z,14.75
2023-03-06T22:34:27.859Z,14.18
2023-03-06T22:37:31.069Z,16.30
2023-03-06T22:40:33.213Z,15.80
2023-03-06T22:43:35.630Z,17.07
2023-03-06T22:46:38.576Z,13.82
2023-03-06T22:49:40.584Z,16.80
2023-03-06T22:52:42.651Z,18.60
2023-03-06T22:55:44.732Z,16.60
2023-03-06T22:58:47.000Z,17.20
2023-03-06T23:01:49.095Z,19.35
2023-03-06T23:04:53.853Z,15.93
2023-03-06T23:07:55.870Z,16.50
2023-03-06T23:10:57.791Z,13.82
2023-03-06T23:14:18.959Z,15.27
2023-03-06T23:17:39.426Z,16.15
2023-03-06T23:21:00.001Z,15.68
2023-03-06T23:24:20.591Z,13.90
2023-03-06T23:27:22.669Z,13.20
2023-03-06T23:30:24.711Z,14.77
2023-03-06T23:33:27.122Z,14.65
2023-03-06T23:36:29.672Z,15.68
2023-03-06T23:39:31.692Z,15.82
2023-03-06T23:42:33.938Z,16.50
2023-03-06T23:45:36.673Z,15.67
2023-03-06T23:48:39.459Z,15.45
2023-03-06T23:51:41.488Z,15.25
2023-03-06T23:54:43.934Z,15.50
2023-03-06T23:57:45.974Z,14.82
